• images/banner/banner1.jpg
  • images/banner/banner2.jpg

Team Member Login

Aviation Weather

[source: ADDS]
METAR
EGVN 230350Z 03007KT 8000 BR FEW006 BKN017 09/09 Q1014 TEMPO BKN007 =
TAF EGVN 230118Z 2303/2403 35008KT 9999 BKN007 BECMG 2303/2305 BKN020 PROB40 TEMPO 2303/2306 3000 RADZ BECMG 2306/2309 SCT030 TEMPO 2306/2310 6000 RA
TAF
TAF EGVN 230118Z 2303/2403 35008KT 9999 BKN007 BECMG 2303/2305 BKN020 PROB40 TEMPO 2303/2306 3000 RADZ BECMG 2306/2309 SCT030 TEMPO 2306/2310 6000 RA =